Time;durP1;ratioP1;P1;durP2;ratioP2;P2;SDS_P1;SDS_P2;PMS_P1;PMS_P2;Temp;Humidity;BMP_temperature;BMP_pressure;BME280_temperature;BME280_humidity;BME280_pressure;Samples;Min_cycle;Max_cycle;Signal;HPM_P1;HPM_P2
2023/06/08 00:01:58;;;;;;;5.13;2.67;;;25.50;99.90;;;;;;4996375;28;20108;-53
2023/06/08 00:04:30;;;;;;;7.32;3.03;;;25.50;99.90;;;;;;4996302;28;20019;-53
2023/06/08 00:06:56;;;;;;;6.10;2.45;;;25.60;99.90;;;;;;4995965;28;20076;-53
2023/06/08 00:09:22;;;;;;;7.68;3.25;;;25.50;99.90;;;;;;4996002;28;20495;-53
2023/06/08 00:11:48;;;;;;;7.60;3.03;;;25.50;99.90;;;;;;4995960;28;20105;-53
2023/06/08 00:14:17;;;;;;;6.73;3.03;;;25.50;99.90;;;;;;4996086;28;20080;-54
2023/06/08 00:16:43;;;;;;;7.78;2.80;;;25.50;99.90;;;;;;4995780;28;20030;-54
2023/06/08 00:19:08;;;;;;;4.97;2.40;;;25.50;99.90;;;;;;4995900;28;20030;-54
2023/06/08 00:21:36;;;;;;;6.35;3.10;;;25.50;99.90;;;;;;4995923;28;20113;-56
2023/06/08 00:24:02;;;;;;;9.43;3.45;;;25.50;99.90;;;;;;4995596;28;20026;-56
2023/06/08 00:26:28;;;;;;;4.85;2.78;;;25.50;99.90;;;;;;4995773;28;20033;-55
2023/06/08 00:28:54;;;;;;;9.20;3.17;;;25.50;99.90;;;;;;5010975;28;20027;-56
2023/06/08 00:31:20;;;;;;;5.68;2.83;;;25.50;99.90;;;;;;4995697;28;20077;-56
2023/06/08 00:33:46;;;;;;;5.38;2.70;;;25.50;99.90;;;;;;4995679;28;20026;-55
2023/06/08 00:36:14;;;;;;;4.63;2.80;;;25.50;99.90;;;;;;4994838;28;20053;-55
2023/06/08 00:38:40;;;;;;;6.85;3.35;;;25.50;99.90;;;;;;4995790;28;20026;-56
2023/06/08 00:41:06;;;;;;;5.95;3.88;;;25.50;99.90;;;;;;4995269;28;20026;-54
2023/06/08 00:43:32;;;;;;;6.03;3.17;;;25.50;99.90;;;;;;4995565;28;20109;-57
2023/06/08 00:46:01;;;;;;;5.22;2.70;;;25.50;99.90;;;;;;4995245;28;20447;-56
2023/06/08 00:48:27;;;;;;;4.53;2.70;;;25.50;99.90;;;;;;4995220;28;20138;-56
2023/06/08 00:50:55;;;;;;;5.85;2.92;;;25.50;99.90;;;;;;4995090;28;20466;-56
2023/06/08 00:53:21;;;;;;;7.57;2.80;;;25.50;99.90;;;;;;4995450;28;20073;-55
2023/06/08 00:55:52;;;;;;;7.13;2.67;;;25.50;99.90;;;;;;4994986;28;20019;-56
2023/06/08 00:58:18;;;;;;;8.65;3.67;;;25.50;99.90;;;;;;4995250;28;20022;-55
2023/06/08 01:00:46;;;;;;;8.52;3.05;;;25.50;99.90;;;;;;5010512;28;20506;-56
2023/06/08 01:03:14;;;;;;;8.10;3.17;;;25.50;99.90;;;;;;4994991;28;20104;-54
2023/06/08 01:05:43;;;;;;;6.15;3.28;;;25.50;99.90;;;;;;4995064;28;20033;-56
2023/06/08 01:08:35;;;;;;;5.40;2.50;;;25.50;99.90;;;;;;4995035;28;20018;-54
2023/06/08 01:11:27;;;;;;;11.35;3.13;;;25.50;99.90;;;;;;4993508;28;20034;-55
2023/06/08 01:14:28;;;;;;;6.35;2.72;;;25.50;99.90;;;;;;4984871;28;20038;-55
2023/06/08 01:17:00;;;;;;;7.47;2.97;;;25.40;99.90;;;;;;4990847;28;20042;-54
2023/06/08 01:20:06;;;;;;;5.72;2.85;;;25.50;99.90;;;;;;4994896;28;20076;-55
2023/06/08 01:22:56;;;;;;;7.35;3.63;;;25.50;99.90;;;;;;4970945;28;20032;-54
2023/06/08 01:25:31;;;;;;;12.10;3.22;;;25.50;99.90;;;;;;4994693;28;20034;-56
2023/06/08 01:28:15;;;;;;;8.82;3.15;;;25.50;99.90;;;;;;4994540;28;20101;-54
2023/06/08 01:30:46;;;;;;;6.55;2.78;;;25.50;99.90;;;;;;4994496;28;20060;-54
2023/06/08 01:33:16;;;;;;;4.63;2.80;;;25.50;99.90;;;;;;4993257;28;20592;-54
2023/06/08 01:35:46;;;;;;;9.15;2.53;;;25.50;99.90;;;;;;4994492;28;20372;-54
2023/06/08 01:38:26;;;;;;;5.88;3.05;;;25.40;99.90;;;;;;5009536;28;20026;-54
2023/06/08 01:40:56;;;;;;;5.00;2.40;;;25.40;99.90;;;;;;5009293;28;20504;-53
2023/06/08 01:43:26;;;;;;;4.80;3.20;;;25.40;99.90;;;;;;4994541;28;20030;-54
2023/06/08 01:46:00;;;;;;;6.90;3.08;;;25.40;99.90;;;;;;4994139;28;20025;-55
2023/06/08 01:48:28;;;;;;;7.55;3.08;;;25.40;99.90;;;;;;4994162;28;20022;-52
2023/06/08 01:50:55;;;;;;;5.95;2.90;;;25.40;99.90;;;;;;4994126;28;20042;-54
2023/06/08 01:53:21;;;;;;;4.10;2.72;;;25.40;99.90;;;;;;5009325;28;20391;-54
2023/06/08 01:55:50;;;;;;;7.25;3.25;;;25.40;99.90;;;;;;4992812;28;20398;-55
2023/06/08 01:58:16;;;;;;;4.18;2.85;;;25.40;99.90;;;;;;4994122;28;20098;-55
2023/06/08 02:00:42;;;;;;;7.72;3.53;;;25.40;99.90;;;;;;5013357;23;20076;-56
2023/06/08 02:03:07;;;;;;;4.85;2.70;;;25.40;99.90;;;;;;5033273;28;20033;-57
2023/06/08 02:05:33;;;;;;;5.57;3.20;;;25.40;99.90;;;;;;5033661;28;20029;-57
2023/06/08 02:07:59;;;;;;;7.60;3.10;;;25.40;99.90;;;;;;5033181;28;20025;-58
2023/06/08 02:10:25;;;;;;;6.75;3.42;;;25.40;99.90;;;;;;5032939;28;20481;-57
2023/06/08 02:12:51;;;;;;;11.55;3.63;;;25.40;99.90;;;;;;5033226;28;20029;-58
2023/06/08 02:15:17;;;;;;;7.45;2.75;;;25.40;99.90;;;;;;5033280;28;20032;-57
2023/06/08 02:17:43;;;;;;;6.68;2.97;;;25.40;99.90;;;;;;5032878;28;20101;-57
2023/06/08 02:20:09;;;;;;;8.30;2.75;;;25.40;99.90;;;;;;5033137;28;20100;-57
2023/06/08 02:22:36;;;;;;;7.80;3.17;;;25.40;99.90;;;;;;5015177;28;20018;-58
2023/06/08 02:25:07;;;;;;;11.88;3.10;;;25.40;99.90;;;;;;5033120;28;20025;-58
2023/06/08 02:27:36;;;;;;;8.45;3.40;;;25.40;99.90;;;;;;5032888;28;20169;-58
2023/06/08 02:30:03;;;;;;;11.32;3.63;;;25.40;99.90;;;;;;5033093;28;20379;-57
2023/06/08 02:32:32;;;;;;;12.30;3.13;;;25.40;99.90;;;;;;5032958;28;20022;-55
2023/06/08 02:35:00;;;;;;;7.07;3.20;;;25.40;99.90;;;;;;5032898;28;20021;-55
2023/06/08 02:37:26;;;;;;;5.22;2.88;;;25.40;99.90;;;;;;5032956;28;20022;-57
2023/06/08 02:39:52;;;;;;;8.20;2.78;;;25.40;99.90;;;;;;5032926;28;20040;-55
2023/06/08 02:42:20;;;;;;;5.05;2.97;;;25.40;99.90;;;;;;5032614;28;20013;-58
2023/06/08 02:44:46;;;;;;;9.80;3.17;;;25.40;99.90;;;;;;5032840;28;20105;-57
2023/06/08 02:47:13;;;;;;;4.65;2.75;;;25.40;99.90;;;;;;5032370;28;20056;-55
2023/06/08 02:49:40;;;;;;;9.00;3.00;;;25.40;99.90;;;;;;5032613;28;20026;-57
2023/06/08 02:52:06;;;;;;;8.02;3.13;;;25.40;99.90;;;;;;5032639;28;20390;-56
2023/06/08 02:54:32;;;;;;;5.68;3.22;;;25.40;99.90;;;;;;5032450;28;20029;-56
2023/06/08 02:56:58;;;;;;;7.47;3.00;;;25.40;99.90;;;;;;5032329;28;20044;-56
2023/06/08 02:59:23;;;;;;;4.85;2.85;;;25.40;99.90;;;;;;5035273;28;20017;-56
2023/06/08 03:01:53;;;;;;;6.97;2.90;;;25.40;99.90;;;;;;5037034;28;20061;-57
2023/06/08 03:04:23;;;;;;;5.72;3.25;;;25.40;99.90;;;;;;5036683;28;20440;-56
2023/06/08 03:06:55;;;;;;;7.35;3.33;;;25.40;99.90;;;;;;5018922;28;20029;-57
2023/06/08 03:09:25;;;;;;;6.70;2.95;;;25.40;99.90;;;;;;5036355;28;20030;-57
2023/06/08 03:11:51;;;;;;;6.85;3.17;;;25.40;99.90;;;;;;5036793;28;20079;-58
2023/06/08 03:14:18;;;;;;;9.30;3.70;;;25.40;99.90;;;;;;5036443;28;20045;-56
2023/06/08 03:16:45;;;;;;;7.77;3.67;;;25.40;99.90;;;;;;5036166;28;20026;-56
2023/06/08 03:19:12;;;;;;;6.85;3.60;;;25.40;99.90;;;;;;5036398;28;20017;-56
2023/06/08 03:21:38;;;;;;;5.70;2.90;;;25.40;99.90;;;;;;5036519;28;20033;-56
2023/06/08 03:24:05;;;;;;;5.45;2.90;;;25.40;99.90;;;;;;5036396;28;20025;-60
2023/06/08 03:26:31;;;;;;;9.88;3.78;;;25.40;99.90;;;;;;5018723;28;20084;-58
2023/06/08 03:28:56;;;;;;;5.80;3.28;;;25.40;99.90;;;;;;5036462;28;20025;-57
2023/06/08 03:31:22;;;;;;;10.38;3.05;;;25.40;99.90;;;;;;5036180;28;20048;-57
2023/06/08 03:33:48;;;;;;;5.20;2.70;;;25.40;99.90;;;;;;5036002;28;20437;-57
2023/06/08 03:36:15;;;;;;;3.95;3.05;;;25.40;99.90;;;;;;5022958;28;20037;-57
2023/06/08 03:38:41;;;;;;;10.93;4.35;;;25.40;99.90;;;;;;5036198;28;20041;-56
2023/06/08 03:41:08;;;;;;;8.82;3.78;;;25.40;99.90;;;;;;5017958;28;20028;-56
2023/06/08 03:43:37;;;;;;;7.07;3.63;;;25.30;99.90;;;;;;5035972;28;20018;-56
2023/06/08 03:46:03;;;;;;;8.95;3.58;;;25.40;99.90;;;;;;5036312;28;20048;-56
2023/06/08 03:48:28;;;;;;;5.15;3.50;;;25.40;99.90;;;;;;5035804;28;20025;-56
2023/06/08 03:50:54;;;;;;;7.15;3.88;;;25.40;99.90;;;;;;5035668;28;20038;-57
2023/06/08 03:53:20;;;;;;;5.65;3.58;;;25.40;99.90;;;;;;5035820;28;20501;-57
2023/06/08 03:55:47;;;;;;;7.90;3.83;;;25.40;99.90;;;;;;5035390;28;20033;-57
2023/06/08 03:58:12;;;;;;;8.60;4.55;;;25.40;99.90;;;;;;5018083;28;20022;-57
2023/06/08 04:00:39;;;;;;;11.27;4.13;;;25.40;99.90;;;;;;5035329;28;20132;-57
2023/06/08 04:03:05;;;;;;;6.30;3.58;;;25.40;99.90;;;;;;5035329;28;20026;-57
2023/06/08 04:05:33;;;;;;;7.57;4.55;;;25.40;99.90;;;;;;5035110;28;20039;-57
2023/06/08 04:08:02;;;;;;;7.32;4.40;;;25.40;99.90;;;;;;5035135;28;20026;-57
2023/06/08 04:10:28;;;;;;;7.60;4.45;;;25.30;99.90;;;;;;5033817;28;20041;-56
2023/06/08 04:12:53;;;;;;;8.90;4.25;;;25.30;99.90;;;;;;5035172;28;20025;-56
2023/06/08 04:15:19;;;;;;;11.80;5.28;;;25.30;99.90;;;;;;5035446;28;20040;-56
2023/06/08 04:17:47;;;;;;;16.42;5.60;;;25.20;99.90;;;;;;5035525;28;20024;-57
2023/06/08 04:20:13;;;;;;;9.77;5.30;;;25.20;99.90;;;;;;5034744;28;20502;-58
2023/06/08 04:22:38;;;;;;;12.10;5.57;;;25.20;99.90;;;;;;5035064;28;20026;-59
2023/06/08 04:25:05;;;;;;;17.35;6.30;;;25.00;99.90;;;;;;5035216;28;20072;-58
2023/06/08 04:27:31;;;;;;;11.52;6.10;;;24.80;99.90;;;;;;5034931;28;20029;-58
2023/06/08 04:29:57;;;;;;;9.80;5.45;;;24.60;99.90;;;;;;5035075;28;20025;-61
2023/06/08 04:32:23;;;;;;;15.23;9.32;;;24.50;99.90;;;;;;5034654;28;20076;-58
2023/06/08 04:34:49;;;;;;;14.57;7.55;;;24.30;99.90;;;;;;5034403;28;20029;-62
2023/06/08 04:37:15;;;;;;;25.58;9.65;;;24.20;99.90;;;;;;5033694;28;20079;-60
2023/06/08 04:39:41;;;;;;;20.25;7.47;;;24.10;99.90;;;;;;5034689;28;20087;-59
2023/06/08 04:42:08;;;;;;;16.10;7.70;;;24.10;99.90;;;;;;5034934;28;20513;-59
2023/06/08 04:44:34;;;;;;;15.38;7.80;;;24.00;99.90;;;;;;5034653;28;20024;-61
2023/06/08 04:47:07;;;;;;;17.70;7.75;;;23.90;99.90;;;;;;5034724;28;20138;-60
2023/06/08 04:49:33;;;;;;;12.27;6.03;;;23.90;99.90;;;;;;5033457;28;20037;-59
2023/06/08 04:51:59;;;;;;;13.73;5.90;;;23.80;99.90;;;;;;5034149;28;20045;-58
2023/06/08 04:54:30;;;;;;;10.95;5.68;;;23.70;99.90;;;;;;5034415;28;20029;-59
2023/06/08 04:56:59;;;;;;;17.67;7.30;;;23.70;99.90;;;;;;5034536;28;20052;-59
2023/06/08 04:59:25;;;;;;;11.50;6.32;;;23.70;99.90;;;;;;5034589;28;20393;-58
2023/06/08 05:01:52;;;;;;;15.37;6.67;;;23.80;99.90;;;;;;5034127;28;20052;-58
2023/06/08 05:04:18;;;;;;;9.95;6.07;;;23.90;99.90;;;;;;5034429;28;20277;-58
2023/06/08 05:06:44;;;;;;;12.23;5.68;;;23.90;99.90;;;;;;5033851;28;20486;-59
2023/06/08 05:09:10;;;;;;;16.48;6.53;;;24.00;99.90;;;;;;5033923;28;20053;-57
2023/06/08 05:11:36;;;;;;;12.80;5.55;;;24.00;99.90;;;;;;5034148;28;20029;-57
2023/06/08 05:14:01;;;;;;;18.77;6.65;;;24.10;99.90;;;;;;5034801;28;20424;-57
2023/06/08 05:16:27;;;;;;;12.98;5.97;;;24.20;99.90;;;;;;5033954;28;20024;-58
2023/06/08 05:18:53;;;;;;;8.43;5.22;;;24.20;99.90;;;;;;5034312;28;20083;-58
2023/06/08 05:21:19;;;;;;;10.57;5.90;;;24.30;99.90;;;;;;5033620;28;20029;-58
2023/06/08 05:23:44;;;;;;;11.70;5.95;;;24.40;99.90;;;;;;5016474;28;20567;-58
2023/06/08 05:26:10;;;;;;;15.07;5.93;;;24.40;99.90;;;;;;5016199;28;20029;-61
2023/06/08 05:28:37;;;;;;;9.00;5.50;;;24.50;99.90;;;;;;5034045;28;20401;-58
2023/06/08 05:31:02;;;;;;;10.90;5.38;;;24.50;99.90;;;;;;5033742;28;20025;-58
2023/06/08 05:33:28;;;;;;;13.75;6.65;;;24.50;99.90;;;;;;5033796;28;20026;-58
2023/06/08 05:35:54;;;;;;;14.45;6.30;;;24.60;99.90;;;;;;5033840;28;20036;-58
2023/06/08 05:38:20;;;;;;;9.20;5.30;;;24.60;99.90;;;;;;5016269;28;20100;-58
2023/06/08 05:40:46;;;;;;;10.85;6.40;;;24.60;99.90;;;;;;5033239;28;20438;-57
2023/06/08 05:43:12;;;;;;;10.05;5.40;;;24.60;99.90;;;;;;5033719;28;20029;-58
2023/06/08 05:45:37;;;;;;;7.97;4.88;;;24.70;99.90;;;;;;5034012;28;20030;-58
2023/06/08 05:48:03;;;;;;;10.13;5.63;;;24.70;99.90;;;;;;4999145;28;20018;-58
2023/06/08 05:50:29;;;;;;;10.85;5.63;;;24.70;99.90;;;;;;5015884;28;20033;-57
2023/06/08 05:52:55;;;;;;;11.13;5.00;;;24.70;99.90;;;;;;5033642;28;20079;-58
2023/06/08 05:55:21;;;;;;;8.55;5.10;;;24.70;99.90;;;;;;5033516;28;20104;-59
2023/06/08 05:57:47;;;;;;;12.10;5.68;;;24.70;99.90;;;;;;5033217;28;20056;-58
2023/06/08 06:00:13;;;;;;;11.73;6.15;;;24.80;99.90;;;;;;5033486;28;20164;-59
2023/06/08 06:02:40;;;;;;;9.50;4.65;;;24.80;99.90;;;;;;5015518;28;20045;-58
2023/06/08 06:05:08;;;;;;;9.85;4.63;;;24.80;99.90;;;;;;5016158;28;20107;-57
2023/06/08 06:07:35;;;;;;;7.88;4.60;;;24.80;99.90;;;;;;5033275;28;20378;-58
2023/06/08 06:10:01;;;;;;;9.07;4.90;;;24.80;99.90;;;;;;5032923;28;20061;-58
2023/06/08 06:12:27;;;;;;;8.30;4.50;;;24.80;99.90;;;;;;5033107;28;20514;-59
2023/06/08 06:14:55;;;;;;;10.55;5.38;;;24.90;99.90;;;;;;5033198;28;20156;-59
2023/06/08 06:17:21;;;;;;;7.32;5.05;;;24.90;99.90;;;;;;5033035;28;20025;-59
2023/06/08 06:19:46;;;;;;;10.20;5.28;;;24.90;99.90;;;;;;5033332;28;20414;-61
2023/06/08 06:22:12;;;;;;;9.73;5.05;;;24.90;99.90;;;;;;5015392;28;20040;-62
2023/06/08 06:24:38;;;;;;;7.90;4.55;;;24.90;99.90;;;;;;5032842;28;20017;-61
2023/06/08 06:27:05;;;;;;;10.43;4.50;;;24.90;99.90;;;;;;5015712;28;20022;-59
2023/06/08 06:29:31;;;;;;;9.57;4.90;;;24.90;99.90;;;;;;5033139;28;20078;-59
2023/06/08 06:31:56;;;;;;;8.30;4.80;;;24.90;99.90;;;;;;5032806;28;20521;-59
2023/06/08 06:34:22;;;;;;;5.95;4.38;;;24.90;99.90;;;;;;5032389;28;20021;-59
2023/06/08 06:36:48;;;;;;;8.05;4.32;;;25.00;99.90;;;;;;5032814;28;20022;-59
2023/06/08 06:39:14;;;;;;;8.68;4.40;;;25.00;99.90;;;;;;5032688;28;20040;-60
2023/06/08 06:41:41;;;;;;;9.20;4.97;;;25.00;99.90;;;;;;5033038;28;20053;-59
2023/06/08 06:44:08;;;;;;;8.02;4.80;;;25.00;99.90;;;;;;5014986;28;20026;-59
2023/06/08 06:46:34;;;;;;;6.13;4.60;;;25.00;99.90;;;;;;5015033;28;20467;-59
2023/06/08 06:49:00;;;;;;;7.45;4.40;;;25.00;99.90;;;;;;5015173;28;20541;-59
2023/06/08 06:51:26;;;;;;;8.45;4.70;;;25.00;99.90;;;;;;5032822;28;20105;-60
2023/06/08 06:53:52;;;;;;;9.75;4.85;;;25.00;99.90;;;;;;5032276;28;20024;-61
2023/06/08 06:56:17;;;;;;;7.70;4.35;;;25.00;99.90;;;;;;5032771;28;20429;-60
2023/06/08 06:58:46;;;;;;;7.88;4.35;;;25.00;99.90;;;;;;5032250;28;20095;-61
2023/06/08 07:01:12;;;;;;;8.43;4.82;;;25.00;99.90;;;;;;5032662;28;20506;-61
2023/06/08 07:03:42;;;;;;;6.53;3.83;;;25.00;99.90;;;;;;5032504;28;20052;-62
2023/06/08 07:06:09;;;;;;;6.55;4.53;;;25.00;99.90;;;;;;5032629;28;20021;-61
2023/06/08 07:08:36;;;;;;;6.10;4.25;;;25.00;99.90;;;;;;5032650;28;20033;-61
2023/06/08 07:11:03;;;;;;;5.57;4.22;;;25.00;99.90;;;;;;5032256;28;20466;-61
2023/06/08 07:13:31;;;;;;;7.15;4.07;;;25.00;99.90;;;;;;5032479;28;20033;-61
2023/06/08 07:15:57;;;;;;;5.18;4.07;;;25.00;99.90;;;;;;5015076;28;20032;-61
2023/06/08 07:18:24;;;;;;;4.83;3.93;;;25.00;99.90;;;;;;5032538;28;20087;-61
2023/06/08 07:20:50;;;;;;;6.28;4.30;;;25.10;99.90;;;;;;5014922;28;20024;-59
2023/06/08 07:23:16;;;;;;;6.13;4.00;;;25.10;99.90;;;;;;5032575;28;20026;-59
2023/06/08 07:25:41;;;;;;;7.10;4.50;;;25.10;99.90;;;;;;5031953;28;20048;-60
2023/06/08 07:28:08;;;;;;;5.47;4.20;;;25.10;99.90;;;;;;5014672;28;20108;-60
2023/06/08 07:30:35;;;;;;;5.93;3.88;;;25.10;99.90;;;;;;5032363;28;20100;-60
2023/06/08 07:33:01;;;;;;;5.50;3.70;;;25.10;99.90;;;;;;5032149;28;20385;-60
2023/06/08 07:35:28;;;;;;;5.40;4.00;;;25.10;99.90;;;;;;5014627;28;20036;-62
2023/06/08 07:37:54;;;;;;;6.55;3.90;;;25.10;99.90;;;;;;5032259;28;20025;-61
2023/06/08 07:40:20;;;;;;;6.78;3.90;;;25.10;99.90;;;;;;5032324;28;20067;-59
2023/06/08 07:42:46;;;;;;;7.55;3.95;;;25.10;99.90;;;;;;5031948;28;20017;-59
2023/06/08 07:45:13;;;;;;;6.50;3.88;;;25.10;99.90;;;;;;5034415;28;20017;-59
2023/06/08 07:47:40;;;;;;;7.85;4.22;;;25.10;99.90;;;;;;5035726;28;20481;-60
2023/06/08 07:50:06;;;;;;;4.72;3.35;;;25.10;99.90;;;;;;5035469;28;20037;-60
2023/06/08 07:52:32;;;;;;;5.72;4.10;;;25.10;99.90;;;;;;5035825;28;20025;-61
2023/06/08 07:54:58;;;;;;;7.35;3.60;;;25.10;99.90;;;;;;5035520;28;20021;-61
2023/06/08 07:57:25;;;;;;;6.93;3.92;;;25.20;99.90;;;;;;5035516;28;20390;-60
2023/06/08 07:59:51;;;;;;;5.38;3.70;;;25.20;99.90;;;;;;5035577;28;20120;-60
2023/06/08 08:02:16;;;;;;;6.45;4.43;;;25.10;99.90;;;;;;5035373;28;20486;-61
2023/06/08 08:04:42;;;;;;;6.40;3.70;;;25.20;99.90;;;;;;5035236;28;20026;-60
2023/06/08 08:07:08;;;;;;;5.80;3.65;;;25.20;99.90;;;;;;5035665;28;20021;-60
2023/06/08 08:09:34;;;;;;;6.78;3.60;;;25.20;99.90;;;;;;5035159;28;20025;-60
2023/06/08 08:12:00;;;;;;;7.32;3.90;;;25.20;99.90;;;;;;5035438;28;20045;-61
2023/06/08 08:14:25;;;;;;;6.97;3.25;;;25.20;99.90;;;;;;5035282;28;20501;-60
2023/06/08 08:16:51;;;;;;;4.32;3.55;;;25.20;99.90;;;;;;5035222;28;20033;-59
2023/06/08 08:19:17;;;;;;;7.32;4.18;;;25.20;99.90;;;;;;5035182;28;20112;-61
2023/06/08 08:21:43;;;;;;;4.60;3.35;;;25.20;99.90;;;;;;5035610;28;20052;-60
2023/06/08 08:24:09;;;;;;;4.47;3.30;;;25.20;99.90;;;;;;5035188;28;20025;-60
2023/06/08 08:26:40;;;;;;;6.13;3.00;;;25.20;99.90;;;;;;5035076;28;20021;-60
2023/06/08 08:29:06;;;;;;;6.28;3.38;;;25.20;99.90;;;;;;5034955;28;20112;-60
2023/06/08 08:31:32;;;;;;;6.00;3.15;;;25.20;99.90;;;;;;5034778;28;20082;-60
2023/06/08 08:33:58;;;;;;;4.57;3.22;;;25.20;99.90;;;;;;5034853;28;20021;-60
2023/06/08 08:36:24;;;;;;;5.53;3.20;;;25.20;99.90;;;;;;5034863;28;20075;-61
2023/06/08 08:38:50;;;;;;;5.38;2.92;;;25.30;99.90;;;;;;5034970;28;20377;-60
2023/06/08 08:41:20;;;;;;;4.63;3.25;;;25.30;99.90;;;;;;5016864;28;20502;-62
2023/06/08 08:44:02;;;;;;;5.53;3.45;;;25.20;99.90;;;;;;5034909;28;20040;-61
2023/06/08 08:46:34;;;;;;;7.70;3.78;;;25.20;99.90;;;;;;5034535;28;20037;-61
2023/06/08 08:49:04;;;;;;;5.50;3.50;;;25.30;99.90;;;;;;5034889;28;20116;-60
2023/06/08 08:51:32;;;;;;;5.47;3.60;;;25.30;99.90;;;;;;5034754;28;20108;-60
2023/06/08 08:54:02;;;;;;;5.35;3.08;;;25.30;99.90;;;;;;5034963;28;20465;-60
2023/06/08 08:56:30;;;;;;;6.13;3.40;;;25.30;99.90;;;;;;5033633;28;20564;-60
2023/06/08 08:58:57;;;;;;;8.35;3.53;;;25.30;99.90;;;;;;5034577;28;20037;-60
2023/06/08 09:01:25;;;;;;;10.30;2.77;;;25.30;99.90;;;;;;5034480;28;20567;-61
2023/06/08 09:03:50;;;;;;;;;;;25.30;99.90;;;;;;5034842;28;20025;-60
2023/06/08 09:06:16;;;;;;;5.78;2.85;;;25.30;99.90;;;;;;5034197;28;19912;-60
2023/06/08 09:08:42;;;;;;;4.25;2.85;;;25.40;99.90;;;;;;5034290;28;20020;-61
2023/06/08 09:11:10;;;;;;;7.25;3.20;;;25.40;99.90;;;;;;5033913;28;20398;-61
2023/06/08 09:13:37;;;;;;;6.13;3.15;;;25.40;99.90;;;;;;5034406;28;20024;-61
2023/06/08 09:16:12;;;;;;;3.95;2.78;;;25.40;99.90;;;;;;5016476;28;20028;-61
2023/06/08 09:18:38;;;;;;;6.03;3.05;;;25.30;99.90;;;;;;5034035;28;20101;-60
2023/06/08 09:21:23;;;;;;;5.97;3.20;;;25.30;99.90;;;;;;5033889;28;20036;-61
2023/06/08 09:24:18;;;;;;;5.20;2.90;;;25.40;99.90;;;;;;5016052;28;20109;-61
2023/06/08 09:26:48;;;;;;;4.45;3.03;;;25.40;99.90;;;;;;5023092;28;20377;-62
2023/06/08 09:29:37;;;;;;;5.20;3.22;;;25.40;99.90;;;;;;5034017;28;20107;-61
2023/06/08 09:32:05;;;;;;;5.85;3.50;;;25.40;99.90;;;;;;5022819;28;20111;-61
2023/06/08 09:34:33;;;;;;;4.53;3.25;;;25.40;99.90;;;;;;5033820;28;20028;-61
2023/06/08 09:37:10;;;;;;;4.35;2.80;;;25.40;99.90;;;;;;5033912;28;20021;-61
2023/06/08 09:39:43;;;;;;;3.47;2.72;;;25.40;99.90;;;;;;5015810;28;20092;-61
2023/06/08 09:42:09;;;;;;;6.18;2.60;;;25.40;99.90;;;;;;5033834;28;20075;-61
2023/06/08 09:44:36;;;;;;;3.67;2.58;;;25.40;99.90;;;;;;5033547;28;20025;-61
2023/06/08 09:47:22;;;;;;;5.85;3.10;;;25.40;99.90;;;;;;5033375;28;20478;-61
2023/06/08 09:49:56;;;;;;;4.88;3.40;;;25.40;99.90;;;;;;5015676;28;20025;-61
2023/06/08 09:52:23;;;;;;;6.38;3.47;;;25.40;99.90;;;;;;5033575;28;20081;-61
2023/06/08 09:54:50;;;;;;;6.30;3.28;;;25.40;99.90;;;;;;5033043;28;20101;-61
2023/06/08 09:57:17;;;;;;;4.53;3.03;;;25.40;99.90;;;;;;5033521;28;20041;-61
2023/06/08 09:59:55;;;;;;;6.32;3.30;;;25.50;99.90;;;;;;5033341;28;20432;-59
2023/06/08 10:02:33;;;;;;;5.18;3.38;;;25.50;99.90;;;;;;5033059;28;20041;-59
2023/06/08 10:05:17;;;;;;;6.70;3.55;;;25.50;99.90;;;;;;5033311;28;20029;-59
2023/06/08 10:07:47;;;;;;;7.20;3.35;;;25.50;99.90;;;;;;5033147;28;20393;-58
2023/06/08 10:10:21;;;;;;;3.92;3.38;;;25.50;99.90;;;;;;5033035;28;20045;-59
2023/06/08 10:12:47;;;;;;;4.68;3.25;;;25.50;99.90;;;;;;5033150;28;20087;-60
2023/06/08 10:15:14;;;;;;;4.65;3.35;;;25.50;99.90;;;;;;5033468;28;20033;-60
2023/06/08 10:17:42;;;;;;;5.43;3.75;;;25.50;99.90;;;;;;5033200;28;20431;-59
2023/06/08 10:20:08;;;;;;;;;;;25.50;99.90;;;;;;5020403;28;20041;-60
2023/06/08 10:22:36;;;;;;;5.60;3.22;;;25.50;99.90;;;;;;5033095;28;19905;-61
2023/06/08 10:25:03;;;;;;;8.90;3.00;;;25.50;99.90;;;;;;5032755;28;20025;-60
2023/06/08 10:27:30;;;;;;;7.25;3.40;;;25.50;99.90;;;;;;5033041;28;20018;-60
2023/06/08 10:30:00;;;;;;;3.47;3.08;;;25.50;99.90;;;;;;5017728;28;20064;-59
2023/06/08 10:32:39;;;;;;;4.53;2.92;;;25.50;99.90;;;;;;5032897;28;20033;-61
2023/06/08 10:35:07;;;;;;;5.85;3.95;;;25.50;99.90;;;;;;5033119;28;20048;-60
2023/06/08 10:37:34;;;;;;;5.28;3.22;;;25.50;99.90;;;;;;5015288;28;20359;-60
2023/06/08 10:40:12;;;;;;;5.40;3.47;;;25.50;99.90;;;;;;5032724;28;20047;-58
2023/06/08 10:42:51;;;;;;;5.70;3.40;;;25.50;99.90;;;;;;5032991;28;20100;-60
2023/06/08 10:45:31;;;;;;;5.40;3.08;;;25.50;99.90;;;;;;5032807;28;20028;-59
2023/06/08 10:48:06;;;;;;;4.15;3.33;;;25.50;99.90;;;;;;5032336;28;20493;-60
2023/06/08 10:50:37;;;;;;;4.68;3.35;;;25.50;99.90;;;;;;5032938;28;20466;-60
2023/06/08 10:53:03;;;;;;;3.67;3.00;;;25.50;99.90;;;;;;5032785;28;20088;-60
2023/06/08 10:55:29;;;;;;;4.57;2.92;;;25.50;99.90;;;;;;5032545;28;20114;-61
2023/06/08 10:58:05;;;;;;;3.88;3.03;;;25.50;99.90;;;;;;5032495;28;20030;-61
2023/06/08 11:00:33;;;;;;;3.67;2.88;;;25.50;99.90;;;;;;5014839;28;20030;-60
2023/06/08 11:03:06;;;;;;;6.80;3.22;;;25.60;99.90;;;;;;5032276;28;20099;-60
2023/06/08 11:05:36;;;;;;;4.32;3.25;;;25.50;99.90;;;;;;5014960;28;20116;-60
2023/06/08 11:08:03;;;;;;;4.43;2.90;;;25.50;99.90;;;;;;5032450;28;20032;-60
2023/06/08 11:10:32;;;;;;;;;;;25.60;99.90;;;;;;4998891;28;20764;-60
2023/06/08 11:13:09;;;;;;;5.13;3.10;;;25.60;99.90;;;;;;5032469;28;20356;-61
2023/06/08 11:15:42;;;;;;;5.72;3.05;;;25.60;99.90;;;;;;5032462;28;20068;-61
2023/06/08 11:18:09;;;;;;;3.50;3.00;;;25.60;99.90;;;;;;5032467;28;20385;-60
2023/06/08 11:20:37;;;;;;;7.85;3.67;;;25.60;99.90;;;;;;5035357;28;20031;-60
2023/06/08 11:23:07;;;;;;;4.63;3.28;;;25.60;99.90;;;;;;5036259;28;20041;-60
2023/06/08 11:25:34;;;;;;;3.92;3.53;;;25.60;99.90;;;;;;5036241;28;20037;-60
2023/06/08 11:28:01;;;;;;;5.18;3.50;;;25.60;99.90;;;;;;5036037;28;20033;-62
2023/06/08 11:30:29;;;;;;;6.75;3.28;;;25.60;99.90;;;;;;5036214;28;20038;-61
2023/06/08 11:32:58;;;;;;;6.80;3.70;;;25.60;99.90;;;;;;5035886;28;20018;-61
2023/06/08 11:35:25;;;;;;;4.20;3.53;;;25.60;99.90;;;;;;5035945;28;20030;-60
2023/06/08 11:37:53;;;;;;;4.90;3.35;;;25.60;99.90;;;;;;5036166;28;20033;-61
2023/06/08 11:40:19;;;;;;;5.43;3.10;;;25.60;99.90;;;;;;5036032;28;20029;-60
2023/06/08 11:42:45;;;;;;;5.72;3.80;;;25.60;99.90;;;;;;5036084;28;20406;-60
2023/06/08 11:45:15;;;;;;;6.03;4.07;;;25.60;99.90;;;;;;5035606;28;20028;-60
2023/06/08 11:47:42;;;;;;;5.88;3.88;;;25.60;99.90;;;;;;5035574;28;20456;-60
2023/06/08 11:50:10;;;;;;;4.47;3.00;;;25.60;99.90;;;;;;5035723;28;20072;-59
2023/06/08 11:52:42;;;;;;;5.35;3.17;;;25.70;99.90;;;;;;5036004;28;20033;-59
2023/06/08 11:55:22;;;;;;;4.38;3.30;;;25.60;99.90;;;;;;5035549;28;20021;-60
2023/06/08 11:57:57;;;;;;;4.18;3.35;;;25.70;99.90;;;;;;5035673;28;20029;-60
2023/06/08 12:00:32;;;;;;;4.80;3.42;;;25.60;99.90;;;;;;5035605;28;20025;-60
2023/06/08 12:03:00;;;;;;;5.90;3.47;;;25.60;99.90;;;;;;5017633;28;20383;-60
2023/06/08 12:05:32;;;;;;;5.68;3.70;;;25.70;99.90;;;;;;5035812;28;20508;-61
2023/06/08 12:08:14;;;;;;;5.15;3.17;;;25.70;99.90;;;;;;5017463;28;20029;-61
2023/06/08 12:10:41;;;;;;;4.60;3.13;;;25.70;99.90;;;;;;5035311;28;20037;-62
2023/06/08 12:13:16;;;;;;;5.72;3.20;;;25.70;99.90;;;;;;5035327;28;20033;-61
2023/06/08 12:15:45;;;;;;;6.95;3.60;;;25.70;99.90;;;;;;5035486;28;20039;-61
2023/06/08 12:18:18;;;;;;;5.47;3.20;;;25.60;99.90;;;;;;5035279;28;20097;-61
2023/06/08 12:20:51;;;;;;;5.70;4.35;;;25.70;99.90;;;;;;5035284;28;20022;-61
2023/06/08 12:23:17;;;;;;;3.88;3.22;;;25.60;99.90;;;;;;5035072;28;20029;-62
2023/06/08 12:25:43;;;;;;;5.25;3.70;;;25.70;99.90;;;;;;5035037;28;20032;-60
2023/06/08 12:28:19;;;;;;;8.45;4.35;;;25.60;99.90;;;;;;5035195;28;20032;-60
2023/06/08 12:30:46;;;;;;;4.07;3.45;;;25.60;99.90;;;;;;5033937;28;20052;-62
2023/06/08 12:33:17;;;;;;;4.60;3.45;;;25.70;99.90;;;;;;5034802;28;20016;-60
2023/06/08 12:35:46;;;;;;;6.07;3.95;;;25.70;99.90;;;;;;5035077;28;20060;-61
2023/06/08 12:38:11;;;;;;;5.25;3.63;;;25.70;99.90;;;;;;5035145;28;20029;-62
2023/06/08 12:40:37;;;;;;;4.40;3.33;;;25.70;99.90;;;;;;5034695;28;20033;-60
2023/06/08 12:43:04;;;;;;;4.55;3.63;;;25.70;99.90;;;;;;5034707;28;20025;-61
2023/06/08 12:45:29;;;;;;;6.10;4.03;;;25.70;99.90;;;;;;5034759;28;20030;-61
2023/06/08 12:47:55;;;;;;;4.95;4.05;;;25.70;99.90;;;;;;5034275;28;20032;-60
2023/06/08 12:50:28;;;;;;;6.25;4.13;;;25.70;99.90;;;;;;5034696;28;20115;-61
2023/06/08 12:52:54;;;;;;;4.70;3.80;;;25.70;99.90;;;;;;5034715;28;20105;-60